Time;durP1;ratioP1;P1;durP2;ratioP2;P2;SDS_P1;SDS_P2;PMS_P1;PMS_P2;Temp;Humidity;BMP_temperature;BMP_pressure;BME280_temperature;BME280_humidity;BME280_pressure;Samples;Min_cycle;Max_cycle;Signal;HPM_P1;HPM_P2
2023/08/18 00:01:08;;;;;;;139.20;132.20;;;;;;;20.99;100.00;101065.81;5001821;28;20052;-82
2023/08/18 00:03:35;;;;;;;150.40;142.65;;;;;;;21.19;100.00;101075.84;5001904;28;20173;-78
2023/08/18 00:06:04;;;;;;;132.25;125.45;;;;;;;21.53;100.00;101072.66;5000589;28;20050;-77
2023/08/18 00:08:32;;;;;;;112.63;106.75;;;;;;;21.77;100.00;101072.94;5009563;28;20054;-81
2023/08/18 00:10:59;;;;;;;133.05;126.05;;;;;;;21.81;100.00;101065.06;5007120;28;20042;-82
2023/08/18 00:13:25;;;;;;;137.52;130.13;;;;;;;21.61;100.00;101080.25;5008456;28;20058;-82
2023/08/18 00:15:52;;;;;;;148.02;139.77;;;;;;;21.12;100.00;101074.47;5006581;28;20122;-82
2023/08/18 00:18:19;;;;;;;124.78;118.18;;;;;;;21.49;100.00;101069.69;5002613;28;20038;-82
2023/08/18 00:20:46;;;;;;;42.40;40.15;;;;;;;21.32;100.00;101076.41;4999719;28;20067;-81
2023/08/18 00:23:15;;;;;;;151.70;144.10;;;;;;;20.89;100.00;101076.59;5000074;28;20077;-82
2023/08/18 00:25:41;;;;;;;147.30;139.75;;;;;;;20.95;100.00;101067.44;5003460;28;20050;-78
2023/08/18 00:28:08;;;;;;;140.35;133.30;;;;;;;21.08;100.00;101085.00;5003795;28;20045;-77
2023/08/18 00:30:35;;;;;;;152.10;144.25;;;;;;;21.41;100.00;101085.63;5002201;28;20053;-81
2023/08/18 00:33:02;;;;;;;169.38;160.60;;;;;;;21.51;100.00;101082.94;5000729;28;20130;-82
2023/08/18 00:35:29;;;;;;;122.43;115.90;;;;;;;21.49;100.00;101080.50;5007540;28;20050;-78
2023/08/18 00:37:56;;;;;;;107.80;102.15;;;;;;;21.58;100.00;101082.69;5006250;28;20057;-82
2023/08/18 00:40:24;;;;;;;117.03;110.78;;;;;;;21.27;100.00;101088.84;5010413;28;20049;-82
2023/08/18 00:42:52;;;;;;;102.93;97.32;;;;;;;21.15;100.00;101091.00;5005979;28;20056;-82
2023/08/18 00:45:19;;;;;;;34.40;32.30;;;;;;;20.89;100.00;101092.81;5004415;28;20112;-78
2023/08/18 00:47:45;;;;;;;34.33;32.33;;;;;;;21.08;100.00;101079.63;5004450;28;20453;-82
2023/08/18 00:50:13;;;;;;;34.35;32.30;;;;;;;20.96;100.00;101090.66;5007115;28;20049;-82
2023/08/18 00:52:41;;;;;;;42.55;40.42;;;;;;;20.96;100.00;101087.94;5004515;28;20042;-82
2023/08/18 00:55:10;;;;;;;123.15;116.65;;;;;;;20.28;100.00;101096.03;5007243;28;20415;-82
2023/08/18 00:57:40;;;;;;;59.60;56.35;;;;;;;20.41;100.00;101097.44;5006611;28;20049;-82
2023/08/18 01:00:11;;;;;;;58.42;55.13;;;;;;;20.77;100.00;101092.22;5004417;28;20046;-77
2023/08/18 01:02:37;;;;;;;103.20;98.20;;;;;;;20.39;100.00;101104.97;5007561;28;20065;-82
2023/08/18 01:05:05;;;;;;;202.10;192.27;;;;;;;21.00;100.00;101094.47;5006198;28;20651;-82
2023/08/18 01:07:32;;;;;;;184.70;176.00;;;;;;;20.89;100.00;101095.50;5003522;28;20554;-82
2023/08/18 01:09:58;;;;;;;35.40;33.30;;;;;;;20.97;100.00;101107.69;5009140;28;20054;-82
2023/08/18 01:12:34;;;;;;;42.75;40.33;;;;;;;20.94;100.00;101105.53;5004489;28;20049;-82
2023/08/18 01:15:11;;;;;;;47.70;45.20;;;;;;;20.70;100.00;101099.78;5007427;28;20057;-82
2023/08/18 01:17:48;;;;;;;31.67;29.85;;;;;;;20.66;100.00;101096.75;5002537;28;20430;-82
2023/08/18 01:20:15;;;;;;;33.97;31.98;;;;;;;20.78;100.00;101100.03;5005475;28;20046;-82
2023/08/18 01:22:45;;;;;;;33.05;30.73;;;;;;;20.84;100.00;101092.78;5006018;28;20042;-82
2023/08/18 01:25:13;;;;;;;37.53;35.42;;;;;;;20.59;100.00;101090.81;5007647;28;20486;-82
2023/08/18 01:27:40;;;;;;;38.47;36.38;;;;;;;20.71;100.00;101104.88;5006788;28;20045;-84
2023/08/18 01:30:08;;;;;;;37.72;35.70;;;;;;;20.44;100.00;101096.91;5007256;28;20052;-77
2023/08/18 01:32:45;;;;;;;34.72;32.63;;;;;;;20.61;100.00;101094.06;5006799;28;20050;-78
2023/08/18 01:35:13;;;;;;;33.85;32.05;;;;;;;20.49;100.00;101094.25;5002889;28;20597;-77
2023/08/18 01:37:42;;;;;;;43.80;41.50;;;;;;;20.52;100.00;101091.06;5005356;28;20453;-77
2023/08/18 01:40:14;;;;;;;37.08;35.08;;;;;;;20.61;100.00;101098.66;5004735;28;20057;-78
2023/08/18 01:42:41;;;;;;;40.95;38.85;;;;;;;19.85;100.00;101097.91;5005741;28;20049;-77
2023/08/18 01:45:11;;;;;;;34.97;33.08;;;;;;;20.38;100.00;101091.75;5001404;28;20054;-78
2023/08/18 01:47:38;;;;;;;35.50;33.50;;;;;;;20.32;100.00;101091.72;5003955;28;20063;-77
2023/08/18 01:50:05;;;;;;;35.60;33.70;;;;;;;20.55;100.00;101090.53;5005177;28;20539;-82
2023/08/18 01:52:32;;;;;;;41.78;39.67;;;;;;;20.51;100.00;101091.28;5005445;28;20072;-82
2023/08/18 01:54:59;;;;;;;37.15;35.10;;;;;;;20.28;100.00;101079.03;5001525;28;20053;-81
2023/08/18 01:57:27;;;;;;;34.40;32.50;;;;;;;20.34;100.00;101089.59;5004747;28;20140;-77
2023/08/18 01:59:54;;;;;;;36.67;34.67;;;;;;;19.58;100.00;101091.75;5005838;28;20053;-82
2023/08/18 02:02:21;;;;;;;45.58;43.33;;;;;;;19.96;100.00;101096.09;5000879;28;20426;-77
2023/08/18 02:04:48;;;;;;;45.22;43.10;;;;;;;20.24;100.00;101092.25;5005659;28;20061;-77
2023/08/18 02:07:15;;;;;;;51.08;48.47;;;;;;;20.25;100.00;101091.16;5004282;28;20046;-78
2023/08/18 02:09:42;;;;;;;52.83;50.33;;;;;;;20.19;100.00;101094.09;4999156;28;20051;-78
2023/08/18 02:12:09;;;;;;;57.83;54.60;;;;;;;20.13;100.00;101088.66;5006827;28;20132;-78
2023/08/18 02:14:37;;;;;;;58.50;55.80;;;;;;;20.16;100.00;101098.13;5008734;28;20034;-77
2023/08/18 02:17:04;;;;;;;71.40;68.20;;;;;;;20.17;100.00;101097.03;5004621;28;20046;-82
2023/08/18 02:19:31;;;;;;;75.65;72.45;;;;;;;20.19;100.00;101097.59;5008438;28;20050;-81
2023/08/18 02:21:58;;;;;;;61.92;59.13;;;;;;;20.19;100.00;101104.88;5010876;28;20541;-81
2023/08/18 02:24:25;;;;;;;59.38;56.58;;;;;;;18.91;100.00;101101.88;5007812;28;20046;-78
2023/08/18 02:26:52;;;;;;;126.45;120.57;;;;;;;19.59;100.00;101104.94;5005358;28;20129;-82
2023/08/18 02:29:19;;;;;;;119.43;113.68;;;;;;;19.98;100.00;101099.34;5001691;28;20053;-82
2023/08/18 02:31:49;;;;;;;111.05;105.50;;;;;;;19.65;100.00;101095.06;5003777;28;20042;-78
2023/08/18 02:34:16;;;;;;;105.10;100.10;;;;;;;19.64;100.00;101096.09;5010205;28;20057;-78
2023/08/18 02:36:43;;;;;;;104.05;99.35;;;;;;;19.92;100.00;101105.78;5009315;28;20406;-78
2023/08/18 02:39:10;;;;;;;109.00;104.22;;;;;;;19.87;100.00;101094.94;5008701;28;20563;-82
2023/08/18 02:41:37;;;;;;;118.03;112.72;;;;;;;19.92;100.00;101097.69;5005592;28;20053;-78
2023/08/18 02:44:04;;;;;;;118.78;112.88;;;;;;;19.29;100.00;101100.09;5002389;28;20050;-78
2023/08/18 02:46:31;;;;;;;143.70;136.45;;;;;;;19.28;100.00;101100.34;5001626;28;20419;-78
2023/08/18 02:48:59;;;;;;;122.43;116.57;;;;;;;19.56;100.00;101099.25;5009829;28;20053;-82
2023/08/18 02:51:26;;;;;;;119.45;113.75;;;;;;;19.74;100.00;101098.91;5009303;28;20498;-80
2023/08/18 02:53:53;;;;;;;122.18;116.65;;;;;;;19.76;100.00;101104.03;5004337;28;20046;-78
2023/08/18 02:56:20;;;;;;;112.57;107.30;;;;;;;19.34;100.00;101096.66;5001633;28;20108;-77
2023/08/18 02:58:47;;;;;;;105.10;100.30;;;;;;;19.36;100.00;101102.56;5007890;28;20061;-77
2023/08/18 03:01:14;;;;;;;113.97;108.88;;;;;;;19.54;100.00;101099.50;5002663;28;20046;-78
2023/08/18 03:03:41;;;;;;;103.95;98.85;;;;;;;19.05;100.00;101098.75;5005375;28;20050;-78
2023/08/18 03:06:09;;;;;;;117.90;112.55;;;;;;;19.60;100.00;101103.06;5004971;28;20046;-83
2023/08/18 03:08:38;;;;;;;106.80;101.90;;;;;;;19.45;100.00;101103.72;5006907;28;20050;-78
2023/08/18 03:11:06;;;;;;;109.07;103.78;;;;;;;19.29;100.00;101101.97;5006657;28;20430;-82
2023/08/18 03:13:33;;;;;;;77.95;74.05;;;;;;;19.45;100.00;101101.88;5006292;28;20517;-82
2023/08/18 03:15:59;;;;;;;86.32;81.93;;;;;;;19.25;100.00;101107.06;5007058;28;20054;-82
2023/08/18 03:18:26;;;;;;;74.85;71.03;;;;;;;19.26;100.00;101100.59;5009421;28;20042;-78
2023/08/18 03:20:59;;;;;;;55.92;52.92;;;;;;;18.87;100.00;101111.47;5011259;28;20061;-82
2023/08/18 03:23:28;;;;;;;27.85;26.35;;;;;;;18.98;100.00;101113.22;5009013;28;20046;-82
2023/08/18 03:26:03;;;;;;;31.02;29.33;;;;;;;18.50;100.00;101113.97;5007819;28;20045;-78
2023/08/18 03:28:32;;;;;;;32.13;30.55;;;;;;;18.66;100.00;101117.66;5011204;28;20073;-82
2023/08/18 03:31:00;;;;;;;31.35;29.45;;;;;;;18.92;100.00;101119.63;5010209;28;20049;-82
2023/08/18 03:33:27;;;;;;;26.50;25.10;;;;;;;18.90;100.00;101116.38;5008130;28;20045;-82
2023/08/18 03:35:54;;;;;;;24.58;23.27;;;;;;;18.95;100.00;101116.44;5011650;28;20050;-83
2023/08/18 03:38:21;;;;;;;21.80;20.70;;;;;;;19.11;100.00;101112.03;5009003;28;20516;-83
2023/08/18 03:40:50;;;;;;;22.50;21.00;;;;;;;18.90;100.00;101116.38;5010181;28;20516;-82
2023/08/18 03:43:18;;;;;;;22.05;20.75;;;;;;;18.77;100.00;101130.22;5006709;28;20119;-82
2023/08/18 03:45:47;;;;;;;22.70;21.08;;;;;;;19.09;100.00;101126.78;5008909;28;20071;-83
2023/08/18 03:48:14;;;;;;;22.88;21.63;;;;;;;19.15;100.00;101120.41;5004678;28;20056;-83
2023/08/18 03:50:41;;;;;;;22.30;21.00;;;;;;;19.28;100.00;101130.78;5010591;28;20567;-84
2023/08/18 03:53:08;;;;;;;23.08;21.67;;;;;;;19.15;100.00;101139.25;5002582;28;20050;-83
2023/08/18 03:55:35;;;;;;;24.98;22.95;;;;;;;19.01;100.00;101140.72;5001935;28;20050;-78
2023/08/18 03:58:03;;;;;;;22.95;21.60;;;;;;;19.55;100.00;101141.56;5003537;28;20061;-77
2023/08/18 04:00:30;;;;;;;24.90;23.40;;;;;;;19.64;100.00;101139.22;5000509;28;20109;-78
2023/08/18 04:02:57;;;;;;;22.77;21.38;;;;;;;19.83;100.00;101145.88;5001005;28;20042;-77
2023/08/18 04:05:24;;;;;;;24.17;22.50;;;;;;;19.92;100.00;101148.09;5006140;28;20054;-77
2023/08/18 04:07:51;;;;;;;23.83;22.45;;;;;;;19.46;100.00;101145.78;5001457;28;20057;-78
2023/08/18 04:10:18;;;;;;;24.08;22.58;;;;;;;19.75;100.00;101143.63;5003294;28;20112;-77
2023/08/18 04:12:45;;;;;;;23.27;21.88;;;;;;;19.83;100.00;101145.88;5006582;28;20471;-77
2023/08/18 04:15:14;;;;;;;21.52;20.08;;;;;;;19.75;100.00;101146.31;5003883;28;20053;-82
2023/08/18 04:17:41;;;;;;;21.88;20.48;;;;;;;20.32;100.00;101145.66;5005451;28;20081;-83
2023/08/18 04:20:10;;;;;;;23.23;21.70;;;;;;;20.69;100.00;101141.31;5008755;28;20042;-82
2023/08/18 04:22:37;;;;;;;21.90;20.50;;;;;;;20.67;100.00;101146.19;5007852;28;20431;-83
2023/08/18 04:25:05;;;;;;;20.30;19.00;;;;;;;20.96;100.00;101141.16;5011743;28;20057;-82
2023/08/18 04:27:34;;;;;;;20.20;18.83;;;;;;;21.07;100.00;101144.72;5004490;28;20053;-82
2023/08/18 04:30:00;;;;;;;19.75;18.50;;;;;;;20.70;100.00;101145.66;5009485;28;20054;-78
2023/08/18 04:32:29;;;;;;;20.20;19.00;;;;;;;20.61;100.00;101145.34;5006340;28;20045;-77
2023/08/18 04:34:55;;;;;;;22.90;21.20;;;;;;;20.94;100.00;101149.53;5008047;28;20053;-77
2023/08/18 04:37:24;;;;;;;23.13;21.73;;;;;;;21.17;100.00;101140.13;5010318;28;20050;-77
2023/08/18 04:39:54;;;;;;;21.30;19.90;;;;;;;21.49;100.00;101137.25;5008857;28;20061;-77
2023/08/18 04:42:21;;;;;;;21.13;19.67;;;;;;;21.63;100.00;101145.63;5008291;28;20041;-77
2023/08/18 04:44:48;;;;;;;19.50;18.30;;;;;;;21.98;100.00;101141.31;5003364;28;20494;-77
2023/08/18 04:47:16;;;;;;;20.60;19.40;;;;;;;21.57;100.00;101137.78;5004735;28;20520;-77
2023/08/18 04:49:44;;;;;;;20.75;19.25;;;;;;;21.72;100.00;101141.34;5003889;28;20449;-78
2023/08/18 04:52:11;;;;;;;19.55;18.45;;;;;;;21.54;100.00;101135.63;5001254;28;20433;-77
2023/08/18 04:54:38;;;;;;;21.30;20.10;;;;;;;21.50;100.00;101132.66;5005445;28;20096;-77
2023/08/18 04:57:07;;;;;;;23.17;21.73;;;;;;;21.66;100.00;101122.66;5004371;28;20507;-77
2023/08/18 04:59:34;;;;;;;21.48;20.35;;;;;;;21.48;100.00;101132.09;5005046;28;20042;-77
2023/08/18 05:02:01;;;;;;;20.60;19.30;;;;;;;21.20;100.00;101128.78;5005463;28;20045;-77
2023/08/18 05:04:28;;;;;;;21.85;20.55;;;;;;;21.80;100.00;101134.56;4996503;28;20042;-77
2023/08/18 05:06:56;;;;;;;20.65;19.35;;;;;;;22.16;100.00;101126.41;5000348;28;20046;-77
2023/08/18 05:09:23;;;;;;;20.67;19.48;;;;;;;22.26;100.00;101128.31;5003167;28;20053;-77
2023/08/18 05:11:50;;;;;;;19.42;18.23;;;;;;;22.36;100.00;101123.72;5008004;28;20120;-77
2023/08/18 05:14:17;;;;;;;19.92;18.67;;;;;;;22.44;100.00;101126.91;4995355;28;20434;-77
2023/08/18 05:16:44;;;;;;;21.10;19.70;;;;;;;22.52;100.00;101121.75;5009073;28;20058;-82
2023/08/18 05:19:10;;;;;;;21.30;19.80;;;;;;;22.92;100.00;101130.78;5006370;28;20050;-83
2023/08/18 05:21:37;;;;;;;22.10;20.80;;;;;;;24.06;100.00;101121.63;5008995;28;20045;-82
2023/08/18 05:24:06;;;;;;;22.85;21.55;;;;;;;24.78;100.00;101118.94;5007173;28;20057;-83
2023/08/18 05:26:34;;;;;;;22.55;21.15;;;;;;;24.92;100.00;101117.09;5009913;28;20501;-83
2023/08/18 05:29:01;;;;;;;19.77;18.58;;;;;;;25.06;100.00;101117.19;5006926;28;20100;-83
2023/08/18 05:31:28;;;;;;;20.42;19.13;;;;;;;25.36;100.00;101113.22;5006073;28;20056;-83
2023/08/18 05:33:54;;;;;;;19.77;18.50;;;;;;;26.15;100.00;101111.66;5010068;28;20061;-83
2023/08/18 05:36:22;;;;;;;21.63;20.30;;;;;;;25.93;100.00;101115.84;5011010;28;20049;-83
2023/08/18 05:38:49;;;;;;;22.70;21.30;;;;;;;25.91;100.00;101106.38;5013684;28;20061;-83
2023/08/18 05:41:18;;;;;;;20.75;19.55;;;;;;;26.28;100.00;101108.91;5009810;28;20938;-77
2023/08/18 05:43:45;;;;;;;21.60;20.40;;;;;;;26.87;100.00;101103.66;5011048;28;20049;-77
2023/08/18 05:46:12;;;;;;;21.95;20.58;;;;;;;26.57;100.00;101109.78;5011634;28;20053;-83
2023/08/18 05:48:39;;;;;;;22.02;20.73;;;;;;;27.16;100.00;101114.19;5010420;28;20046;-76
2023/08/18 05:51:06;;;;;;;22.02;20.63;;;;;;;27.05;100.00;101104.63;5011725;28;20433;-81
2023/08/18 05:53:32;;;;;;;21.38;19.95;;;;;;;26.99;100.00;101110.47;5011783;28;20038;-77
2023/08/18 05:55:59;;;;;;;21.48;19.88;;;;;;;26.99;100.00;101103.13;5004127;28;20528;-81
2023/08/18 05:58:29;;;;;;;22.02;20.63;;;;;;;27.04;100.00;101113.09;5009804;28;20064;-81
2023/08/18 06:00:56;;;;;;;20.67;19.38;;;;;;;27.13;100.00;101105.81;5010134;28;20054;-81
2023/08/18 06:03:23;;;;;;;20.85;19.55;;;;;;;27.09;100.00;101111.06;5007479;28;20062;-82
2023/08/18 06:05:51;;;;;;;20.75;19.45;;;;;;;27.29;100.00;101109.81;5009515;28;20050;-82
2023/08/18 06:08:17;;;;;;;22.88;21.38;;;;;;;27.32;100.00;101111.94;5012555;28;20113;-81
2023/08/18 06:10:44;;;;;;;21.63;20.23;;;;;;;27.25;100.00;101114.28;5012602;28;20140;-82
2023/08/18 06:13:14;;;;;;;24.20;22.77;;;;;;;27.24;100.00;101112.66;5011196;28;20407;-81
2023/08/18 06:15:43;;;;;;;24.48;22.98;;;;;;;27.67;100.00;101116.81;5010657;28;20565;-82
2023/08/18 06:18:11;;;;;;;23.58;22.08;;;;;;;27.72;100.00;101106.59;5009812;28;20053;-82
2023/08/18 06:20:38;;;;;;;24.77;23.27;;;;;;;27.49;100.00;101124.88;5008405;28;20050;-82
2023/08/18 06:23:05;;;;;;;24.88;23.48;;;;;;;27.59;100.00;101116.44;5013186;28;20050;-82
2023/08/18 06:25:37;;;;;;;25.48;23.98;;;;;;;27.40;100.00;101127.53;5010304;28;20153;-82
2023/08/18 06:28:06;;;;;;;24.67;23.23;;;;;;;27.54;100.00;101121.22;5010856;28;20046;-82
2023/08/18 06:30:33;;;;;;;23.13;21.63;;;;;;;27.90;100.00;101114.88;5011783;28;20171;-83
2023/08/18 06:33:01;;;;;;;23.88;22.48;;;;;;;28.22;100.00;101127.41;5011819;28;20057;-82
2023/08/18 06:35:28;;;;;;;24.45;23.05;;;;;;;28.15;100.00;101133.31;5007485;28;20042;-77
2023/08/18 06:37:55;;;;;;;25.27;23.77;;;;;;;28.12;100.00;101127.69;5003763;28;20057;-83
2023/08/18 06:40:22;;;;;;;23.33;22.02;;;;;;;28.23;100.00;101118.09;5009825;28;20046;-83
2023/08/18 06:42:49;;;;;;;23.80;22.38;;;;;;;28.26;100.00;101114.72;5009120;28;20502;-83
2023/08/18 06:45:16;;;;;;;26.10;24.50;;;;;;;28.50;100.00;101119.81;5010952;28;20423;-83
2023/08/18 06:47:44;;;;;;;23.05;21.65;;;;;;;28.65;100.00;101115.84;5008954;28;20490;-78
2023/08/18 06:50:12;;;;;;;26.05;24.35;;;;;;;28.59;100.00;101123.38;5003231;28;20457;-78
2023/08/18 06:52:39;;;;;;;23.65;22.25;;;;;;;28.73;100.00;101124.06;5004890;28;20042;-78
2023/08/18 06:55:07;;;;;;;23.52;22.13;;;;;;;28.72;100.00;101121.66;5012676;28;20072;-78
2023/08/18 06:57:33;;;;;;;26.05;23.67;;;;;;;28.87;100.00;101121.19;5008186;28;20058;-78
2023/08/18 07:00:09;;;;;;;24.40;23.00;;;;;;;29.04;100.00;101122.34;5011936;28;20713;-78
2023/08/18 07:02:36;;;;;;;26.95;25.55;;;;;;;29.29;100.00;101126.19;5012061;28;20149;-78
2023/08/18 07:05:05;;;;;;;24.75;23.25;;;;;;;28.99;100.00;101131.50;5013097;28;20445;-78
2023/08/18 07:07:36;;;;;;;22.85;21.45;;;;;;;28.96;100.00;101143.06;4993606;28;20057;-78
2023/08/18 07:10:03;;;;;;;23.17;21.77;;;;;;;29.41;100.00;101137.28;5005372;28;20433;-78
2023/08/18 07:12:29;;;;;;;23.90;22.40;;;;;;;29.60;100.00;101139.72;5012121;28;20084;-78
2023/08/18 07:14:56;;;;;;;26.15;24.45;;;;;;;29.33;100.00;101132.66;5013034;28;20498;-78
2023/08/18 07:17:23;;;;;;;24.70;23.30;;;;;;;29.54;100.00;101130.88;5013361;28;20046;-83
2023/08/18 07:19:50;;;;;;;23.65;22.15;;;;;;;29.71;100.00;101131.97;5014323;28;20060;-83
2023/08/18 07:22:20;;;;;;;24.73;23.23;;;;;;;29.59;100.00;101127.13;5014125;28;20046;-82
2023/08/18 07:24:48;;;;;;;37.85;35.75;;;;;;;29.79;100.00;101118.28;5006245;28;20051;-83
2023/08/18 07:27:15;;;;;;;30.88;29.05;;;;;;;29.27;100.00;101126.53;5008388;28;20120;-83
2023/08/18 07:29:42;;;;;;;27.35;25.65;;;;;;;29.59;100.00;101129.88;5013298;28;20049;-83
2023/08/18 07:32:09;;;;;;;29.33;27.52;;;;;;;29.38;100.00;101124.25;5013536;28;20057;-83
2023/08/18 07:34:36;;;;;;;29.83;28.02;;;;;;;29.51;100.00;101125.25;5013783;28;20050;-83
2023/08/18 07:37:05;;;;;;;29.00;27.20;;;;;;;29.61;100.00;101127.63;5013394;28;20046;-83
2023/08/18 07:39:32;;;;;;;31.00;29.10;;;;;;;29.44;100.00;101121.06;5013294;28;20045;-83
2023/08/18 07:42:00;;;;;;;32.72;30.63;;;;;;;30.49;100.00;101115.28;5013399;28;20053;-82
2023/08/18 07:44:27;;;;;;;32.63;30.73;;;;;;;30.26;100.00;101122.97;5013186;28;20046;-83
2023/08/18 07:46:54;;;;;;;33.92;32.03;;;;;;;30.45;100.00;101120.63;5012344;28;20445;-79
2023/08/18 07:49:21;;;;;;;32.92;30.60;;;;;;;30.63;100.00;101132.28;5012629;28;20053;-78
2023/08/18 07:51:48;;;;;;;30.85;28.85;;;;;;;29.99;100.00;101133.22;5012698;28;20052;-78
2023/08/18 07:54:15;;;;;;;29.40;27.50;;;;;;;30.33;100.00;101132.28;5012011;28;20049;-79
2023/08/18 07:56:42;;;;;;;29.30;27.40;;;;;;;30.76;100.00;101139.44;5012079;28;20498;-78
2023/08/18 07:59:10;;;;;;;39.63;37.33;;;;;;;30.15;100.00;101132.66;5012060;28;20434;-78
2023/08/18 08:01:37;;;;;;;38.28;35.97;;;;;;;30.92;100.00;101133.41;5006989;28;20042;-82
2023/08/18 08:04:04;;;;;;;39.05;36.75;;;;;;;30.85;100.00;101130.41;5009094;28;20052;-82
2023/08/18 08:06:31;;;;;;;37.20;34.92;;;;;;;30.78;100.00;101139.97;5013026;28;20058;-83
2023/08/18 08:09:01;;;;;;;35.92;33.60;;;;;;;31.32;100.00;101152.13;5012748;28;20050;-83
2023/08/18 08:11:28;;;;;;;33.60;31.50;;;;;;;31.15;100.00;101145.66;5013223;28;20053;-82
2023/08/18 08:13:56;;;;;;;38.83;36.53;;;;;;;30.65;100.00;101151.94;5012261;28;20054;-82
2023/08/18 08:16:24;;;;;;;35.08;32.88;;;;;;;30.52;100.00;101153.78;5012031;28;20536;-79
2023/08/18 08:18:53;;;;;;;27.35;25.45;;;;;;;31.27;100.00;101144.91;5012023;28;20076;-78
2023/08/18 08:21:20;;;;;;;28.75;26.80;;;;;;;31.63;100.00;101143.50;5012268;28;20058;-79
2023/08/18 08:23:48;;;;;;;30.92;28.83;;;;;;;31.96;100.00;101135.25;5011205;28;20050;-79
2023/08/18 08:26:15;;;;;;;29.52;27.55;;;;;;;31.57;100.00;101134.66;5012061;28;20433;-79
2023/08/18 08:28:44;;;;;;;29.67;27.58;;;;;;;31.98;100.00;101141.19;5012187;28;20053;-81
2023/08/18 08:31:11;;;;;;;26.55;24.65;;;;;;;31.95;100.00;101141.88;5012589;28;20069;-79
2023/08/18 08:33:39;;;;;;;26.25;24.55;;;;;;;31.75;100.00;101135.28;5012390;28;20056;-83
2023/08/18 08:36:06;;;;;;;26.80;25.10;;;;;;;31.93;100.00;101127.69;5012807;28;20050;-82
2023/08/18 08:38:33;;;;;;;27.75;26.05;;;;;;;31.83;100.00;101122.59;5010809;28;20136;-79
2023/08/18 08:41:01;;;;;;;34.45;32.45;;;;;;;31.78;100.00;101131.06;5009915;28;20049;-75
2023/08/18 08:43:28;;;;;;;30.15;27.45;;;;;;;31.44;100.00;101127.53;5007742;28;20048;-79
2023/08/18 08:45:58;;;;;;;31.88;30.08;;;;;;;31.98;100.00;101134.91;5009014;28;20057;-79
2023/08/18 08:48:30;;;;;;;23.65;22.15;;;;;;;31.58;100.00;101140.94;5009116;28;20042;-79
2023/08/18 08:51:03;;;;;;;26.50;24.80;;;;;;;32.05;100.00;101140.66;5006410;28;20433;-79
2023/08/18 08:53:36;;;;;;;24.80;23.20;;;;;;;32.79;100.00;101144.97;5008232;28;20046;-79
2023/08/18 08:56:04;;;;;;;24.90;23.30;;;;;;;33.06;95.14;101148.16;5009661;28;20306;-82
2023/08/18 08:58:32;;;;;;;24.92;23.23;;;;;;;32.81;95.89;101148.19;5006654;28;20629;-82
2023/08/18 09:01:01;;;;;;;27.58;25.73;;;;;;;32.79;93.40;101146.94;5002940;28;20051;-82
2023/08/18 09:03:29;;;;;;;28.30;26.40;;;;;;;32.77;94.15;101151.97;5006567;28;20049;-79
2023/08/18 09:05:56;;;;;;;23.92;22.33;;;;;;;33.04;93.76;101151.28;5007877;28;20061;-79
2023/08/18 09:08:24;;;;;;;24.13;22.52;;;;;;;32.78;89.78;101150.84;5009591;28;20439;-79
2023/08/18 09:10:51;;;;;;;22.95;21.38;;;;;;;32.73;97.14;101156.56;5008348;28;20050;-79
2023/08/18 09:13:18;;;;;;;23.52;21.95;;;;;;;32.93;90.32;101154.84;5007334;28;20057;-79
2023/08/18 09:15:46;;;;;;;24.10;22.60;;;;;;;32.89;94.60;101154.69;5008322;28;20046;-80
2023/08/18 09:18:13;;;;;;;24.10;22.50;;;;;;;33.30;85.48;101139.81;5005476;28;20480;-79
2023/08/18 09:20:43;;;;;;;25.50;23.90;;;;;;;33.54;89.42;101137.34;5008188;28;20053;-79
2023/08/18 09:23:10;;;;;;;25.33;23.63;;;;;;;33.66;85.38;101131.78;5007979;28;20046;-79
2023/08/18 09:25:38;;;;;;;25.83;24.13;;;;;;;33.23;92.67;101133.34;5008375;28;20050;-83
2023/08/18 09:28:06;;;;;;;26.23;23.38;;;;;;;32.55;99.86;101129.31;5005377;28;20050;-82
2023/08/18 09:30:33;;;;;;;21.30;19.80;;;;;;;32.93;93.59;101132.81;5007620;28;20065;-82
2023/08/18 09:33:03;;;;;;;23.00;21.50;;;;;;;32.69;90.66;101128.97;5009218;28;20049;-82
2023/08/18 09:35:34;;;;;;;23.83;22.23;;;;;;;32.90;88.95;101109.56;5003800;28;20140;-82
2023/08/18 09:38:01;;;;;;;24.50;22.90;;;;;;;33.40;84.49;101101.94;5008398;28;20057;-82
2023/08/18 09:40:28;;;;;;;24.08;22.58;;;;;;;32.71;100.00;101099.19;5009147;28;20042;-82
2023/08/18 09:42:57;;;;;;;27.33;25.33;;;;;;;32.57;96.73;101088.56;4997207;28;20058;-82
2023/08/18 09:45:26;;;;;;;25.98;24.50;;;;;;;32.92;95.91;101092.69;5006192;28;20457;-82
2023/08/18 09:47:55;;;;;;;25.35;23.85;;;;;;;31.76;100.00;101094.91;5006786;28;20518;-82
2023/08/18 09:50:25;;;;;;;27.75;26.05;;;;;;;32.27;97.58;101085.22;5008072;28;20485;-79
2023/08/18 09:52:54;;;;;;;27.20;25.50;;;;;;;32.17;94.29;101070.03;5008870;28;20093;-79
2023/08/18 09:55:26;;;;;;;30.58;28.88;;;;;;;31.18;100.00;101064.63;5005922;28;20108;-79
2023/08/18 09:58:04;;;;;;;27.60;25.90;;;;;;;32.60;94.24;101059.56;5006674;28;20060;-79
2023/08/18 10:00:32;;;;;;;28.85;27.15;;;;;;;31.84;100.00;101061.84;5005648;28;20053;-79
2023/08/18 10:03:03;;;;;;;31.67;29.88;;;;;;;31.64;100.00;101070.97;5001979;28;20042;-79
2023/08/18 10:05:30;;;;;;;28.80;27.10;;;;;;;31.32;100.00;101059.66;5007910;28;20081;-79
2023/08/18 10:07:57;;;;;;;30.20;28.40;;;;;;;31.56;100.00;101061.69;5003291;28;20502;-79
2023/08/18 10:10:26;;;;;;;26.45;24.65;;;;;;;31.76;100.00;101056.47;5002287;28;20426;-79
2023/08/18 10:12:54;;;;;;;30.70;28.67;;;;;;;31.65;100.00;101094.53;5009463;28;20487;-79
2023/08/18 10:15:24;;;;;;;32.45;30.45;;;;;;;31.79;100.00;101122.47;5005655;28;20049;-79
2023/08/18 10:17:51;;;;;;;32.35;30.10;;;;;;;30.57;100.00;101112.50;5008042;28;20060;-79
2023/08/18 10:20:18;;;;;;;30.92;29.02;;;;;;;30.73;100.00;101087.22;5006219;28;20053;-78
2023/08/18 10:22:45;;;;;;;39.00;36.60;;;;;;;30.30;100.00;101071.88;5007419;28;20058;-82
2023/08/18 10:25:23;;;;;;;32.83;30.63;;;;;;;30.31;100.00;101065.25;5007653;28;20049;-82
2023/08/18 10:27:50;;;;;;;45.17;42.83;;;;;;;30.79;100.00;101066.75;5011741;28;20042;-82
2023/08/18 10:30:29;;;;;;;46.75;44.28;;;;;;;30.57;100.00;101062.38;5005557;28;20510;-83
2023/08/18 10:33:08;;;;;;;43.72;41.42;;;;;;;30.80;100.00;101060.09;5002240;28;20112;-79
2023/08/18 10:35:41;;;;;;;43.15;40.75;;;;;;;30.49;100.00;101061.28;5009304;28;20055;-79
2023/08/18 10:38:08;;;;;;;41.72;39.35;;;;;;;29.91;100.00;101057.38;5010027;28;20092;-78
2023/08/18 10:40:36;;;;;;;37.88;35.67;;;;;;;30.24;100.00;101052.09;5010576;28;20088;-79
2023/08/18 10:43:04;;;;;;;30.23;28.33;;;;;;;30.19;100.00;101044.03;5007655;28;20241;-78
2023/08/18 10:45:33;;;;;;;24.48;22.98;;;;;;;30.68;100.00;101049.06;5012300;28;20713;-79
2023/08/18 10:48:03;;;;;;;28.77;26.67;;;;;;;30.97;100.00;101051.75;5012571;28;20077;-79
2023/08/18 10:50:31;;;;;;;25.75;24.08;;;;;;;31.08;100.00;101051.34;5011776;28;20049;-79
2023/08/18 10:53:00;;;;;;;25.50;23.80;;;;;;;30.98;100.00;101064.31;5010552;28;20054;-79
2023/08/18 10:55:27;;;;;;;28.33;26.42;;;;;;;31.11;100.00;101059.69;5005055;28;20577;-79
2023/08/18 10:57:54;;;;;;;25.30;23.70;;;;;;;31.22;100.00;101066.34;5011695;28;20069;-79
2023/08/18 11:00:21;;;;;;;26.65;25.05;;;;;;;31.02;100.00;101061.72;5010095;28;20054;-79
2023/08/18 11:02:51;;;;;;;25.35;23.85;;;;;;;31.21;100.00;101067.50;5010485;28;20081;-80